| time (UTC) | temp F | wind direction | speed MPH | gust MPH | rain 1hr in | rain 24hr in | rain mn in | humidity % | barometer mb |
| 20260508052005 | 42 | 136 | 0.0 | 1.0 | 0.07 | 0.21 | 0.14 | 94 | 1012.7 |
| 20260508051505 | 42 | 134 | 0.0 | 4.0 | 0.08 | 0.21 | 0.14 | 94 | 1012.7 |
| 20260508051005 | 42 | 148 | 1.0 | 4.0 | 0.10 | 0.21 | 0.14 | 94 | 1012.8 |
| 20260508050505 | 42 | 147 | 1.0 | 4.0 | 0.13 | 0.21 | 0.14 | 94 | 1012.6 |
| 20260508050005 | 42 | 119 | 1.0 | 4.0 | 0.14 | 0.21 | 0.14 | 94 | 1012.8 |
| 20260508045526 | 42 | 312 | 1.0 | 4.0 | 0.14 | 0.20 | 0.13 | 94 | 1013.0 |
| 20260508045005 | 42 | 289 | 1.0 | 6.0 | 0.14 | 0.19 | 0.12 | 94 | 1013.3 |
| 20260508044505 | 42 | 285 | 1.0 | 10.0 | 0.15 | 0.19 | 0.12 | 94 | 1013.3 |
| 20260508044026 | 43 | 285 | 1.0 | 10.0 | 0.16 | 0.18 | 0.11 | 93 | 1013.3 |
| 20260508043505 | 43 | 261 | 1.0 | 4.0 | 0.16 | 0.17 | 0.10 | 93 | 1013.3 |
| 20260508043005 | 43 | 264 | 1.0 | 6.0 | 0.16 | 0.16 | 0.09 | 92 | 1013.0 |
| 20260508042505 | 43 | 308 | 1.0 | 6.0 | 0.15 | 0.15 | 0.08 | 92 | 1012.9 |
| 20260508042005 | 43 | 316 | 1.0 | 6.0 | 0.14 | 0.14 | 0.07 | 92 | 1013.0 |
| 20260508041505 | 43 | 305 | 1.0 | 6.0 | 0.13 | 0.13 | 0.06 | 91 | 1012.9 |
| 20260508041005 | 44 | 302 | 3.0 | 16.0 | 0.11 | 0.11 | 0.04 | 90 | 1013.0 |
| 20260508040526 | 44 | 298 | 4.0 | 16.0 | 0.08 | 0.08 | 0.03 | 89 | 1012.9 |
| 20260508040005 | 45 | 318 | 3.0 | 12.0 | 0.07 | 0.07 | 0.00 | 90 | 1012.9 |
| 20260508035505 | 45 | 10 | 1.0 | 4.0 | 0.06 | 0.06 | 0.06 | 89 | 1012.6 |
| 20260508035006 | 45 | 27 | 1.0 | 6.0 | 0.05 | 0.05 | 0.05 | 87 | 1012.3 |
| 20260508034505 | 46 | 6 | 1.0 | 6.0 | 0.04 | 0.04 | 0.04 | 86 | 1012.3 |
| 20260508034026 | 46 | 346 | 1.0 | 6.0 | 0.02 | 0.02 | 0.02 | 85 | 1012.3 |
| 20260508033505 | 47 | 329 | 1.0 | 6.0 | 0.01 | 0.01 | 0.01 | 83 | 1012.2 |
| 20260508033026 | 47 | 328 | 0.0 | 3.0 | 0.00 | 0.00 | 0.00 | 80 | 1011.9 |
| 20260508032505 | 48 | 334 | 0.0 | 3.0 | 0.00 | 0.00 | 0.00 | 76 | 1011.7 |
| 20260508032004 | 48 | 0 | 0.0 | 0.0 | 0.00 | 0.00 | 0.00 | 73 | 1011.4 |
| 20260508031505 | 48 | 0 | 0.0 | 0.0 | 0.00 | 0.00 | 0.00 | 72 | 1011.2 |
| 20260508031005 | 48 | 0 | 0.0 | 0.0 | 0.00 | 0.00 | 0.00 | 71 | 1011.0 |
| 20260508030505 | 48 | 0 | 0.0 | 0.0 | 0.00 | 0.00 | 0.00 | 72 | 1011.0 |
| 20260508030005 | 48 | 0 | 0.0 | 0.0 | 0.00 | 0.00 | 0.00 | 74 | 1010.9 |
| 20260508025505 | 48 | 0 | 0.0 | 0.0 | 0.00 | 0.00 | 0.00 | 72 | 1010.8 |
| 20260508025005 | 48 | 99 | 0.0 | 1.0 | 0.00 | 0.00 | 0.00 | 72 | 1010.7 |
| 20260508024505 | 48 | 99 | 0.0 | 1.0 | 0.00 | 0.00 | 0.00 | 72 | 1010.7 |
| 20260508024005 | 48 | 60 | 0.0 | 3.0 | 0.00 | 0.00 | 0.00 | 73 | 1010.8 |
| 20260508023526 | 48 | 61 | 0.0 | 3.0 | 0.00 | 0.00 | 0.00 | 71 | 1010.8 |
| 20260508023026 | 48 | 62 | 0.0 | 3.0 | 0.00 | 0.00 | 0.00 | 68 | 1010.8 |
| 20260508022504 | 48 | 248 | 0.0 | 1.0 | 0.00 | 0.00 | 0.00 | 70 | 1010.8 |
| 20260508022005 | 48 | 248 | 0.0 | 1.0 | 0.00 | 0.00 | 0.00 | 71 | 1010.7 |
| 20260508021504 | 48 | 360 | 0.0 | 3.0 | 0.00 | 0.00 | 0.00 | 71 | 1010.7 |
| 20260508021005 | 48 | 7 | 0.0 | 4.0 | 0.00 | 0.00 | 0.00 | 72 | 1010.8 |
| 20260508020504 | 48 | 343 | 0.0 | 4.0 | 0.00 | 0.00 | 0.00 | 71 | 1010.7 |
| 20260508020005 | 48 | 315 | 0.0 | 4.0 | 0.00 | 0.00 | 0.00 | 71 | 1010.6 |
| 20260508015505 | 48 | 335 | 0.0 | 3.0 | 0.00 | 0.00 | 0.00 | 72 | 1010.6 |
| 20260508015005 | 48 | 360 | 0.0 | 1.0 | 0.00 | 0.00 | 0.00 | 67 | 1010.5 |
| 20260508014505 | 48 | 358 | 0.0 | 3.0 | 0.00 | 0.00 | 0.00 | 67 | 1010.5 |
| 20260508014026 | 48 | 358 | 0.0 | 3.0 | 0.00 | 0.00 | 0.00 | 68 | 1010.5 |
| 20260508013525 | 48 | 355 | 0.0 | 1.0 | 0.00 | 0.00 | 0.00 | 69 | 1010.5 |
| 20260508013005 | 48 | 355 | 0.0 | 1.0 | 0.00 | 0.00 | 0.00 | 70 | 1010.4 |
| 20260508012504 | 48 | 355 | 0.0 | 1.0 | 0.00 | 0.00 | 0.00 | 66 | 1010.4 |
| 20260508012004 | 48 | 355 | 0.0 | 1.0 | 0.00 | 0.00 | 0.00 | 68 | 1010.4 |
| 20260508011504 | 49 | 355 | 0.0 | 1.0 | 0.00 | 0.00 | 0.00 | 67 | 1010.4 |
| 20260508011005 | 49 | 355 | 0.0 | 1.0 | 0.00 | 0.00 | 0.00 | 66 | 1010.3 |
| 20260508010505 | 49 | 355 | 0.0 | 3.0 | 0.00 | 0.00 | 0.00 | 66 | 1010.2 |
| 20260508010005 | 49 | 355 | 0.0 | 3.0 | 0.00 | 0.00 | 0.00 | 67 | 1010.3 |
| 20260508005504 | 49 | 355 | 0.0 | 3.0 | 0.00 | 0.00 | 0.00 | 67 | 1010.1 |
| 20260508005005 | 49 | 0 | 0.0 | 0.0 | 0.00 | 0.00 | 0.00 | 68 | 1010.1 |
| 20260508004504 | 50 | 355 | 0.0 | 3.0 | 0.00 | 0.00 | 0.00 | 67 | 1010.2 |
| 20260508004025 | 50 | 355 | 0.0 | 3.0 | 0.00 | 0.00 | 0.00 | 68 | 1010.0 |
| 20260508003504 | 50 | 355 | 0.0 | 1.0 | 0.00 | 0.00 | 0.00 | 66 | 1010.0 |
| 20260508003005 | 50 | 355 | 0.0 | 1.0 | 0.00 | 0.00 | 0.00 | 62 | 1010.0 |
| 20260508002504 | 51 | 355 | 0.0 | 1.0 | 0.00 | 0.00 | 0.00 | 65 | 1009.8 |
| 20260508002004 | 51 | 355 | 0.0 | 1.0 | 0.00 | 0.00 | 0.00 | 63 | 1009.9 |
| 20260508001504 | 51 | 355 | 0.0 | 3.0 | 0.00 | 0.00 | 0.00 | 63 | 1009.8 |
| 20260508001025 | 52 | 355 | 0.0 | 3.0 | 0.00 | 0.00 | 0.00 | 61 | 1009.9 |
| 20260508000504 | 52 | 355 | 0.0 | 1.0 | 0.00 | 0.00 | 0.00 | 63 | 1009.8 |
| 20260508000004 | 52 | 0 | 0.0 | 0.0 | 0.00 | 0.00 | 0.00 | 61 | 1009.8 |
| 20260507235504 | 53 | 0 | 0.0 | 0.0 | 0.00 | 0.00 | 0.00 | 64 | 1009.8 |
| 20260507235004 | 53 | 0 | 0.0 | 0.0 | 0.00 | 0.00 | 0.00 | 62 | 1009.8 |
| 20260507234504 | 53 | 0 | 0.0 | 0.0 | 0.00 | 0.00 | 0.00 | 61 | 1009.6 |
| 20260507234004 | 54 | 355 | 0.0 | 1.0 | 0.00 | 0.00 | 0.00 | 58 | 1009.8 |
| 20260507233504 | 54 | 355 | 0.0 | 1.0 | 0.00 | 0.00 | 0.00 | 60 | 1009.7 |
| 20260507233026 | 54 | 347 | 0.0 | 3.0 | 0.00 | 0.00 | 0.00 | 57 | 1009.7 |
| 20260507232504 | 54 | 356 | 0.0 | 3.0 | 0.00 | 0.00 | 0.00 | 58 | 1009.6 |
| 20260507232004 | 54 | 36 | 0.0 | 3.0 | 0.00 | 0.00 | 0.00 | 55 | 1009.5 |
| 20260507231525 | 55 | 36 | 0.0 | 3.0 | 0.00 | 0.00 | 0.00 | 55 | 1009.6 |
| 20260507231004 | 55 | 36 | 0.0 | 1.0 | 0.00 | 0.00 | 0.00 | 54 | 1009.6 |
| 20260507230525 | 55 | 30 | 0.0 | 3.0 | 0.00 | 0.01 | 0.00 | 54 | 1009.6 |
| 20260507230005 | 55 | 37 | 1.0 | 4.0 | 0.00 | 0.01 | 0.00 | 51 | 1009.7 |
| 20260507225504 | 55 | 59 | 0.0 | 4.0 | 0.00 | 0.01 | 0.00 | 55 | 1009.8 |
| 20260507225004 | 56 | 232 | 0.0 | 3.0 | 0.00 | 0.01 | 0.00 | 54 | 1009.6 |
| 20260507224505 | 56 | 253 | 0.0 | 3.0 | 0.00 | 0.01 | 0.00 | 52 | 1009.6 |
| 20260507224004 | 56 | 300 | 0.0 | 4.0 | 0.00 | 0.01 | 0.00 | 50 | 1009.5 |
| 20260507223504 | 56 | 274 | 0.0 | 4.0 | 0.00 | 0.01 | 0.00 | 54 | 1009.4 |
| 20260507223004 | 56 | 268 | 0.0 | 4.0 | 0.00 | 0.01 | 0.00 | 53 | 1009.4 |
| 20260507222504 | 56 | 277 | 0.0 | 4.0 | 0.00 | 0.01 | 0.00 | 54 | 1009.4 |
| 20260507222004 | 56 | 320 | 1.0 | 6.0 | 0.00 | 0.01 | 0.00 | 57 | 1009.5 |
| 20260507221525 | 56 | 325 | 1.0 | 6.0 | 0.00 | 0.01 | 0.00 | 51 | 1009.3 |
| 20260507221004 | 56 | 172 | 0.0 | 6.0 | 0.00 | 0.01 | 0.00 | 50 | 1009.2 |
| 20260507220504 | 56 | 170 | 0.0 | 6.0 | 0.00 | 0.01 | 0.00 | 51 | 1009.3 |
| 20260507220004 | 56 | 258 | 0.0 | 4.0 | 0.00 | 0.01 | 0.00 | 53 | 1009.4 |
| 20260507215504 | 56 | 313 | 1.0 | 4.0 | 0.00 | 0.01 | 0.00 | 51 | 1009.3 |
| 20260507215004 | 56 | 290 | 1.0 | 6.0 | 0.00 | 0.01 | 0.00 | 49 | 1009.3 |
| 20260507214504 | 56 | 281 | 1.0 | 10.0 | 0.00 | 0.01 | 0.00 | 48 | 1009.6 |
| 20260507214004 | 56 | 270 | 1.0 | 10.0 | 0.00 | 0.01 | 0.00 | 50 | 1009.6 |
| 20260507213504 | 56 | 298 | 1.0 | 9.0 | 0.00 | 0.01 | 0.00 | 53 | 1009.5 |
| 20260507213004 | 56 | 21 | 1.0 | 4.0 | 0.00 | 0.01 | 0.00 | 50 | 1009.6 |
| 20260507212504 | 56 | 31 | 0.0 | 4.0 | 0.00 | 0.01 | 0.00 | 48 | 1009.7 |
| 20260507212004 | 56 | 14 | 1.0 | 4.0 | 0.00 | 0.01 | 0.00 | 52 | 1009.6 |
| 20260507211504 | 57 | 11 | 1.0 | 4.0 | 0.00 | 0.01 | 0.00 | 52 | 1009.6 |
| 20260507211005 | 57 | 333 | 1.0 | 3.0 | 0.00 | 0.01 | 0.00 | 48 | 1009.5 |
| 20260507210504 | 57 | 317 | 1.0 | 4.0 | 0.00 | 0.01 | 0.00 | 51 | 1009.5 |
| 20260507210005 | 57 | 294 | 1.0 | 4.0 | 0.00 | 0.01 | 0.00 | 51 | 1009.4 |
| 20260507205504 | 57 | 258 | 1.0 | 9.0 | 0.00 | 0.01 | 0.00 | 48 | 1009.4 |
| 20260507205004 | 57 | 290 | 3.0 | 17.0 | 0.00 | 0.02 | 0.00 | 52 | 1009.3 |
| 20260507204525 | 58 | 297 | 3.0 | 17.0 | 0.00 | 0.02 | 0.00 | 48 | 1009.2 |
| 20260507204004 | 58 | 269 | 1.0 | 7.0 | 0.00 | 0.02 | 0.00 | 46 | 1009.2 |
| 20260507203504 | 58 | 262 | 1.0 | 7.0 | 0.00 | 0.03 | 0.00 | 45 | 1009.4 |
| 20260507203004 | 58 | 261 | 1.0 | 6.0 | 0.00 | 0.03 | 0.00 | 47 | 1009.5 |
| 20260507202505 | 58 | 278 | 1.0 | 6.0 | 0.00 | 0.04 | 0.00 | 46 | 1009.7 |
| 20260507202005 | 58 | 255 | 1.0 | 4.0 | 0.00 | 0.04 | 0.00 | 48 | 1009.7 |
| 20260507201504 | 57 | 220 | 1.0 | 7.0 | 0.00 | 0.04 | 0.00 | 51 | 1009.6 |
| 20260507201004 | 57 | 258 | 1.0 | 7.0 | 0.00 | 0.05 | 0.00 | 49 | 1009.8 |
| 20260507200504 | 57 | 248 | 1.0 | 6.0 | 0.00 | 0.07 | 0.00 | 48 | 1009.9 |
| 20260507200004 | 57 | 193 | 1.0 | 6.0 | 0.00 | 0.07 | 0.00 | 48 | 1009.7 |
| 20260507195525 | 57 | 226 | 1.0 | 6.0 | 0.00 | 0.07 | 0.00 | 51 | 1009.8 |
| 20260507195025 | 57 | 250 | 1.0 | 6.0 | 0.00 | 0.07 | 0.00 | 51 | 1009.9 |
| 20260507194504 | 57 | 312 | 1.0 | 7.0 | 0.00 | 0.07 | 0.00 | 51 | 1009.9 |
| 20260507194004 | 57 | 303 | 1.0 | 7.0 | 0.00 | 0.07 | 0.00 | 48 | 1009.9 |
| 20260507193504 | 58 | 284 | 1.0 | 4.0 | 0.00 | 0.07 | 0.00 | 47 | 1010.0 |
| 20260507193004 | 58 | 351 | 1.0 | 6.0 | 0.00 | 0.07 | 0.00 | 47 | 1010.1 |
| 20260507192504 | 58 | 351 | 3.0 | 12.0 | 0.00 | 0.07 | 0.00 | 48 | 1010.0 |
| 20260507192004 | 59 | 330 | 3.0 | 12.0 | 0.00 | 0.07 | 0.00 | 47 | 1010.0 |
| 20260507191525 | 59 | 283 | 3.0 | 12.0 | 0.00 | 0.07 | 0.00 | 47 | 1010.0 |
| 20260507191004 | 59 | 216 | 1.0 | 12.0 | 0.00 | 0.07 | 0.00 | 54 | 1010.0 |
| 20260507190504 | 59 | 281 | 3.0 | 7.0 | 0.00 | 0.07 | 0.00 | 44 | 1010.2 |
| 20260507190005 | 59 | 314 | 3.0 | 7.0 | 0.00 | 0.07 | 0.00 | 50 | 1010.1 |
| 20260507185504 | 58 | 323 | 3.0 | 12.0 | 0.00 | 0.07 | 0.00 | 48 | 1010.3 |
| 20260507185004 | 58 | 313 | 3.0 | 12.0 | 0.00 | 0.07 | 0.00 | 51 | 1010.4 |
| 20260507184504 | 58 | 308 | 1.0 | 6.0 | 0.00 | 0.07 | 0.00 | 49 | 1010.4 |
| 20260507184004 | 59 | 318 | 3.0 | 6.0 | 0.00 | 0.07 | 0.00 | 45 | 1010.5 |
| 20260507183504 | 59 | 291 | 1.0 | 6.0 | 0.00 | 0.07 | 0.00 | 47 | 1010.5 |
| 20260507183004 | 59 | 294 | 3.0 | 13.0 | 0.00 | 0.07 | 0.00 | 48 | 1010.6 |
| 20260507182504 | 59 | 296 | 3.0 | 13.0 | 0.00 | 0.07 | 0.00 | 48 | 1010.6 |
| 20260507182004 | 58 | 287 | 3.0 | 10.0 | 0.00 | 0.07 | 0.00 | 47 | 1010.6 |
| 20260507181504 | 59 | 320 | 4.0 | 12.0 | 0.00 | 0.07 | 0.00 | 47 | 1010.6 |
| 20260507181004 | 59 | 310 | 4.0 | 19.0 | 0.00 | 0.07 | 0.00 | 49 | 1010.7 |
| 20260507180504 | 60 | 305 | 4.0 | 19.0 | 0.00 | 0.07 | 0.00 | 47 | 1010.6 |
| 20260507180004 | 60 | 306 | 4.0 | 14.0 | 0.00 | 0.07 | 0.00 | 48 | 1010.7 |
| 20260507175504 | 60 | 296 | 3.0 | 13.0 | 0.00 | 0.07 | 0.00 | 43 | 1010.8 |
| 20260507175004 | 60 | 301 | 3.0 | 10.0 | 0.00 | 0.07 | 0.00 | 47 | 1010.7 |
| 20260507174504 | 60 | 294 | 3.0 | 13.0 | 0.00 | 0.07 | 0.00 | 47 | 1010.7 |
| 20260507174004 | 59 | 267 | 3.0 | 13.0 | 0.00 | 0.07 | 0.00 | 42 | 1010.8 |
| 20260507173504 | 59 | 298 | 4.0 | 12.0 | 0.00 | 0.07 | 0.00 | 46 | 1010.9 |
| 20260507173004 | 59 | 333 | 4.0 | 14.0 | 0.00 | 0.07 | 0.00 | 45 | 1010.8 |
| 20260507172504 | 59 | 315 | 4.0 | 14.0 | 0.00 | 0.07 | 0.00 | 44 | 1011.1 |
| 20260507172004 | 59 | 308 | 3.0 | 12.0 | 0.00 | 0.07 | 0.00 | 51 | 1011.1 |
| 20260507171504 | 59 | 296 | 3.0 | 12.0 | 0.00 | 0.07 | 0.00 | 45 | 1011.2 |
| 20260507171004 | 59 | 304 | 3.0 | 13.0 | 0.00 | 0.08 | 0.00 | 50 | 1011.3 |
| 20260507170504 | 59 | 277 | 3.0 | 13.0 | 0.00 | 0.08 | 0.00 | 52 | 1011.3 |
| 20260507170004 | 58 | 218 | 3.0 | 12.0 | 0.00 | 0.08 | 0.00 | 50 | 1011.3 |
| 20260507165504 | 58 | 249 | 3.0 | 13.0 | 0.00 | 0.09 | 0.00 | 49 | 1011.4 |
| 20260507165004 | 58 | 241 | 3.0 | 13.0 | 0.00 | 0.09 | 0.00 | 52 | 1011.4 |
| 20260507164504 | 57 | 217 | 3.0 | 12.0 | 0.00 | 0.09 | 0.00 | 48 | 1011.4 |
| 20260507164004 | 57 | 270 | 3.0 | 9.0 | 0.00 | 0.09 | 0.00 | 48 | 1011.6 |
| 20260507163504 | 57 | 271 | 3.0 | 9.0 | 0.00 | 0.10 | 0.00 | 48 | 1011.6 |
| 20260507163005 | 56 | 268 | 3.0 | 10.0 | 0.00 | 0.10 | 0.00 | 50 | 1011.7 |
| 20260507162525 | 56 | 277 | 4.0 | 14.0 | 0.00 | 0.10 | 0.00 | 51 | 1011.6 |
| 20260507162004 | 56 | 279 | 3.0 | 14.0 | 0.00 | 0.10 | 0.00 | 49 | 1012.0 |
| 20260507161504 | 56 | 327 | 3.0 | 10.0 | 0.00 | 0.10 | 0.00 | 56 | 1012.0 |
| 20260507161025 | 56 | 346 | 3.0 | 10.0 | 0.00 | 0.10 | 0.00 | 52 | 1012.0 |
| 20260507160504 | 55 | 291 | 3.0 | 10.0 | 0.00 | 0.10 | 0.00 | 51 | 1012.1 |
| 20260507160004 | 55 | 288 | 3.0 | 9.0 | 0.00 | 0.11 | 0.00 | 54 | 1012.1 |
| 20260507155504 | 54 | 268 | 1.0 | 12.0 | 0.00 | 0.11 | 0.00 | 58 | 1012.2 |
| 20260507155004 | 54 | 205 | 1.0 | 12.0 | 0.00 | 0.11 | 0.00 | 56 | 1012.3 |
| 20260507154504 | 54 | 74 | 3.0 | 7.0 | 0.00 | 0.11 | 0.00 | 57 | 1012.4 |
| 20260507154004 | 54 | 34 | 3.0 | 7.0 | 0.00 | 0.12 | 0.00 | 57 | 1012.3 |
| 20260507153504 | 54 | 262 | 1.0 | 6.0 | 0.00 | 0.12 | 0.00 | 55 | 1012.6 |
| 20260507153004 | 55 | 233 | 1.0 | 6.0 | 0.00 | 0.13 | 0.00 | 55 | 1012.5 |
| 20260507152504 | 54 | 224 | 1.0 | 6.0 | 0.00 | 0.13 | 0.00 | 57 | 1012.6 |
| 20260507152004 | 54 | 222 | 1.0 | 6.0 | 0.00 | 0.14 | 0.00 | 63 | 1012.7 |
| 20260507151504 | 53 | 227 | 3.0 | 9.0 | 0.00 | 0.15 | 0.00 | 58 | 1012.8 |
| 20260507151004 | 53 | 262 | 1.0 | 9.0 | 0.00 | 0.15 | 0.00 | 61 | 1012.9 |
| 20260507150504 | 52 | 271 | 3.0 | 7.0 | 0.00 | 0.16 | 0.00 | 63 | 1012.9 |
| 20260507150025 | 52 | 258 | 3.0 | 9.0 | 0.00 | 0.16 | 0.00 | 57 | 1013.0 |
| 20260507145525 | 52 | 269 | 3.0 | 9.0 | 0.00 | 0.16 | 0.00 | 60 | 1013.0 |
| 20260507145004 | 52 | 285 | 1.0 | 7.0 | 0.00 | 0.16 | 0.00 | 58 | 1013.0 |
| 20260507144503 | 51 | 296 | 3.0 | 6.0 | 0.00 | 0.17 | 0.00 | 59 | 1013.0 |
| 20260507144004 | 50 | 307 | 3.0 | 6.0 | 0.00 | 0.17 | 0.00 | 63 | 1013.0 |
| 20260507143504 | 50 | 296 | 3.0 | 10.0 | 0.00 | 0.17 | 0.00 | 69 | 1013.0 |
| 20260507143004 | 49 | 324 | 3.0 | 10.0 | 0.00 | 0.18 | 0.00 | 64 | 1013.0 |
| 20260507142504 | 49 | 353 | 1.0 | 6.0 | 0.00 | 0.18 | 0.00 | 64 | 1012.9 |
| 20260507142004 | 48 | 247 | 0.0 | 6.0 | 0.00 | 0.18 | 0.00 | 67 | 1012.8 |
| 20260507141504 | 48 | 164 | 1.0 | 7.0 | 0.00 | 0.18 | 0.00 | 69 | 1012.8 |
| 20260507141025 | 48 | 173 | 1.0 | 7.0 | 0.00 | 0.19 | 0.00 | 68 | 1012.9 |
| 20260507140503 | 48 | 205 | 1.0 | 3.0 | 0.00 | 0.19 | 0.00 | 67 | 1013.2 |
| 20260507140004 | 48 | 201 | 1.0 | 3.0 | 0.00 | 0.20 | 0.00 | 68 | 1013.2 |
| 20260507135525 | 47 | 198 | 0.0 | 6.0 | 0.00 | 0.21 | 0.00 | 69 | 1013.4 |
| 20260507135004 | 47 | 253 | 1.0 | 6.0 | 0.00 | 0.21 | 0.00 | 71 | 1013.4 |
| 20260507134504 | 46 | 285 | 1.0 | 6.0 | 0.00 | 0.22 | 0.00 | 71 | 1013.3 |
| 20260507134004 | 46 | 278 | 1.0 | 6.0 | 0.00 | 0.23 | 0.00 | 76 | 1013.3 |
| 20260507133504 | 46 | 300 | 1.0 | 6.0 | 0.00 | 0.24 | 0.00 | 75 | 1013.3 |
| 20260507133004 | 45 | 318 | 3.0 | 9.0 | 0.00 | 0.25 | 0.00 | 74 | 1013.4 |
| 20260507132504 | 45 | 310 | 1.0 | 9.0 | 0.00 | 0.25 | 0.00 | 77 | 1013.5 |
| 20260507132025 | 45 | 297 | 1.0 | 6.0 | 0.00 | 0.26 | 0.00 | 81 | 1013.4 |
| 20260507131503 | 45 | 299 | 1.0 | 9.0 | 0.00 | 0.27 | 0.00 | 80 | 1013.4 |
| 20260507131004 | 44 | 280 | 1.0 | 9.0 | 0.00 | 0.28 | 0.00 | 79 | 1013.4 |
| 20260507130504 | 44 | 295 | 1.0 | 6.0 | 0.00 | 0.28 | 0.00 | 80 | 1013.4 |
| 20260507130004 | 44 | 280 | 1.0 | 6.0 | 0.00 | 0.29 | 0.00 | 83 | 1013.5 |
| 20260507125503 | 44 | 269 | 1.0 | 6.0 | 0.00 | 0.30 | 0.00 | 83 | 1013.5 |
| 20260507125004 | 43 | 302 | 1.0 | 6.0 | 0.00 | 0.31 | 0.00 | 85 | 1013.4 |
| 20260507124504 | 43 | 321 | 1.0 | 6.0 | 0.00 | 0.32 | 0.00 | 85 | 1013.4 |
| 20260507124004 | 42 | 331 | 1.0 | 4.0 | 0.00 | 0.32 | 0.00 | 85 | 1013.5 |
| 20260507123503 | 42 | 322 | 1.0 | 4.0 | 0.00 | 0.32 | 0.00 | 87 | 1013.3 |
| 20260507123004 | 42 | 308 | 1.0 | 7.0 | 0.00 | 0.32 | 0.00 | 87 | 1013.3 |
| 20260507122503 | 42 | 291 | 1.0 | 7.0 | 0.00 | 0.32 | 0.00 | 87 | 1013.3 |
| 20260507122025 | 41 | 266 | 1.0 | 6.0 | 0.00 | 0.32 | 0.00 | 88 | 1013.3 |
| 20260507121504 | 41 | 291 | 1.0 | 10.0 | 0.00 | 0.32 | 0.00 | 90 | 1013.2 |
| 20260507121004 | 41 | 308 | 1.0 | 10.0 | 0.00 | 0.32 | 0.00 | 89 | 1013.2 |
| 20260507120503 | 40 | 315 | 1.0 | 6.0 | 0.00 | 0.32 | 0.00 | 90 | 1013.2 |
| 20260507120024 | 40 | 341 | 1.0 | 6.0 | 0.00 | 0.32 | 0.00 | 91 | 1013.3 |
| 20260507115503 | 40 | 341 | 1.0 | 6.0 | 0.00 | 0.32 | 0.00 | 92 | 1013.2 |
| 20260507115003 | 40 | 316 | 0.0 | 3.0 | 0.00 | 0.32 | 0.00 | 94 | 1013.3 |
| 20260507114504 | 40 | 300 | 0.0 | 3.0 | 0.00 | 0.32 | 0.00 | 94 | 1013.3 |
| 20260507114003 | 40 | 286 | 0.0 | 3.0 | 0.00 | 0.32 | 0.00 | 95 | 1013.2 |
| 20260507113503 | 39 | 275 | 1.0 | 3.0 | 0.00 | 0.32 | 0.00 | 94 | 1013.2 |
| 20260507113004 | 39 | 265 | 0.0 | 3.0 | 0.00 | 0.32 | 0.00 | 95 | 1013.2 |
| 20260507112503 | 39 | 275 | 0.0 | 6.0 | 0.00 | 0.32 | 0.00 | 95 | 1013.1 |
| 20260507112004 | 39 | 311 | 0.0 | 6.0 | 0.00 | 0.32 | 0.00 | 95 | 1013.0 |
| 20260507111524 | 39 | 8 | 0.0 | 4.0 | 0.00 | 0.32 | 0.00 | 95 | 1012.8 |
| 20260507111003 | 39 | 15 | 0.0 | 3.0 | 0.00 | 0.32 | 0.00 | 95 | 1012.8 |
| 20260507110503 | 39 | 342 | 0.0 | 3.0 | 0.00 | 0.32 | 0.00 | 95 | 1012.7 |
| 20260507110004 | 39 | 308 | 0.0 | 3.0 | 0.00 | 0.32 | 0.00 | 95 | 1012.8 |
| 20260507105503 | 39 | 293 | 0.0 | 3.0 | 0.00 | 0.32 | 0.00 | 95 | 1012.8 |
| 20260507105004 | 39 | 298 | 0.0 | 3.0 | 0.00 | 0.32 | 0.00 | 95 | 1013.0 |
| 20260507104524 | 39 | 192 | 0.0 | 3.0 | 0.00 | 0.32 | 0.00 | 95 | 1012.7 |
| 20260507104024 | 39 | 193 | 0.0 | 3.0 | 0.00 | 0.32 | 0.00 | 95 | 1012.7 |
| 20260507103503 | 39 | 207 | 0.0 | 1.0 | 0.00 | 0.32 | 0.00 | 94 | 1012.8 |
| 20260507103004 | 39 | 0 | 0.0 | 0.0 | 0.00 | 0.32 | 0.00 | 94 | 1012.6 |
| 20260507102503 | 39 | 0 | 0.0 | 0.0 | 0.00 | 0.32 | 0.00 | 94 | 1012.5 |
| 20260507102003 | 39 | 0 | 0.0 | 0.0 | 0.00 | 0.32 | 0.00 | 94 | 1012.5 |
| 20260507101524 | 39 | 211 | 0.0 | 1.0 | 0.00 | 0.32 | 0.00 | 94 | 1012.4 |
| 20260507101004 | 40 | 224 | 0.0 | 1.0 | 0.00 | 0.32 | 0.00 | 94 | 1012.5 |
| 20260507100503 | 40 | 253 | 0.0 | 1.0 | 0.00 | 0.32 | 0.00 | 94 | 1012.4 |
| 20260507100004 | 40 | 247 | 0.0 | 4.0 | 0.00 | 0.32 | 0.00 | 94 | 1012.4 |
| 20260507095524 | 40 | 192 | 0.0 | 4.0 | 0.00 | 0.32 | 0.00 | 94 | 1012.3 |
| 20260507095003 | 40 | 162 | 0.0 | 3.0 | 0.00 | 0.32 | 0.00 | 94 | 1012.3 |
| 20260507094503 | 40 | 229 | 1.0 | 6.0 | 0.00 | 0.32 | 0.00 | 94 | 1012.3 |
| 20260507094024 | 40 | 296 | 1.0 | 10.0 | 0.00 | 0.32 | 0.00 | 94 | 1012.2 |
| 20260507093503 | 41 | 306 | 1.0 | 10.0 | 0.00 | 0.32 | 0.00 | 94 | 1012.3 |
| 20260507093003 | 41 | 209 | 1.0 | 9.0 | 0.00 | 0.32 | 0.00 | 95 | 1012.3 |
| 20260507092503 | 41 | 216 | 0.0 | 4.0 | 0.00 | 0.32 | 0.00 | 95 | 1012.3 |
| 20260507092003 | 41 | 255 | 0.0 | 4.0 | 0.00 | 0.32 | 0.00 | 95 | 1012.2 |
| 20260507091504 | 42 | 281 | 0.0 | 4.0 | 0.00 | 0.32 | 0.00 | 95 | 1012.1 |
| 20260507091003 | 42 | 277 | 0.0 | 4.0 | 0.00 | 0.32 | 0.00 | 95 | 1012.1 |
| 20260507090503 | 42 | 39 | 0.0 | 1.0 | 0.00 | 0.32 | 0.00 | 95 | 1012.3 |
| 20260507090004 | 42 | 87 | 0.0 | 1.0 | 0.00 | 0.32 | 0.00 | 95 | 1012.1 |
| 20260507085503 | 42 | 119 | 0.0 | 3.0 | 0.00 | 0.32 | 0.00 | 95 | 1012.2 |
| 20260507085003 | 42 | 189 | 0.0 | 6.0 | 0.00 | 0.32 | 0.00 | 94 | 1012.0 |
| 20260507084503 | 43 | 231 | 1.0 | 6.0 | 0.00 | 0.32 | 0.00 | 94 | 1011.9 |
| 20260507084003 | 43 | 269 | 1.0 | 9.0 | 0.00 | 0.32 | 0.00 | 94 | 1011.9 |
| 20260507083503 | 43 | 282 | 1.0 | 12.0 | 0.00 | 0.32 | 0.00 | 94 | 1011.8 |
| 20260507083024 | 43 | 243 | 1.0 | 12.0 | 0.00 | 0.32 | 0.00 | 94 | 1011.9 |
| 20260507082503 | 43 | 235 | 3.0 | 10.0 | 0.00 | 0.32 | 0.00 | 95 | 1012.0 |
| 20260507082003 | 44 | 222 | 3.0 | 10.0 | 0.00 | 0.32 | 0.00 | 96 | 1012.1 |
| 20260507081503 | 44 | 189 | 1.0 | 6.0 | 0.00 | 0.32 | 0.00 | 97 | 1012.1 |
| 20260507081024 | 44 | 215 | 1.0 | 6.0 | 0.00 | 0.32 | 0.00 | 97 | 1012.3 |
| 20260507080503 | 44 | 284 | 1.0 | 9.0 | 0.00 | 0.32 | 0.00 | 97 | 1012.2 |
| 20260507080003 | 44 | 301 | 0.0 | 9.0 | 0.00 | 0.32 | 0.00 | 97 | 1012.1 |
| 20260507075524 | 44 | 300 | 0.0 | 3.0 | 0.00 | 0.32 | 0.00 | 97 | 1012.1 |
| 20260507075003 | 44 | 314 | 0.0 | 4.0 | 0.00 | 0.32 | 0.00 | 97 | 1012.1 |
| 20260507074503 | 44 | 297 | 0.0 | 6.0 | 0.00 | 0.32 | 0.00 | 97 | 1012.2 |
| 20260507074003 | 44 | 281 | 1.0 | 6.0 | 0.00 | 0.32 | 0.00 | 97 | 1012.1 |
| 20260507073503 | 44 | 286 | 1.0 | 6.0 | 0.00 | 0.32 | 0.00 | 97 | 1012.3 |
| 20260507073024 | 44 | 277 | 1.0 | 4.0 | 0.00 | 0.32 | 0.00 | 97 | 1012.2 |
| 20260507072524 | 44 | 278 | 1.0 | 4.0 | 0.00 | 0.32 | 0.00 | 97 | 1012.2 |
| 20260507072003 | 44 | 296 | 1.0 | 9.0 | 0.00 | 0.32 | 0.00 | 97 | 1012.4 |
| 20260507071524 | 44 | 295 | 1.0 | 9.0 | 0.00 | 0.32 | 0.00 | 97 | 1012.3 |
| 20260507071024 | 44 | 293 | 1.0 | 4.0 | 0.00 | 0.32 | 0.00 | 97 | 1012.4 |
| 20260507070503 | 44 | 304 | 1.0 | 4.0 | 0.00 | 0.32 | 0.00 | 97 | 1012.3 |
| 20260507070008 | 45 | 304 | 1.0 | 4.0 | 0.00 | 0.32 | 0.00 | 98 | 1012.3 |
| 20260507065503 | 45 | 314 | 1.0 | 4.0 | 0.00 | 0.32 | 0.00 | 98 | 1012.5 |
| 20260507065003 | 45 | 308 | 1.0 | 6.0 | 0.00 | 0.32 | 0.00 | 98 | 1012.4 |
| 20260507064503 | 45 | 299 | 1.0 | 6.0 | 0.00 | 0.32 | 0.00 | 98 | 1012.3 |
| 20260507064024 | 44 | 0 | 0.0 | 0.0 | 0.00 | 0.32 | 0.00 | 98 | 1012.3 |
| 20260507063503 | 44 | 0 | 0.0 | 0.0 | 0.00 | 0.32 | 0.00 | 98 | 1012.2 |
| 20260507063003 | 44 | 0 | 0.0 | 0.0 | 0.00 | 0.32 | 0.00 | 98 | 1012.2 |
| 20260507062503 | 44 | 0 | 0.0 | 0.0 | 0.00 | 0.32 | 0.00 | 98 | 1012.1 |
| 20260507062003 | 44 | 0 | 0.0 | 0.0 | 0.00 | 0.32 | 0.00 | 98 | 1012.2 |
| 20260507061503 | 44 | 167 | 0.0 | 1.0 | 0.00 | 0.32 | 0.00 | 98 | 1012.0 |
| 20260507061003 | 44 | 163 | 0.0 | 6.0 | 0.00 | 0.32 | 0.00 | 98 | 1012.1 |
| 20260507060503 | 44 | 161 | 0.0 | 6.0 | 0.00 | 0.32 | 0.00 | 97 | 1011.9 |
| 20260507060003 | 44 | 50 | 0.0 | 1.0 | 0.00 | 0.32 | 0.00 | 98 | 1012.0 |
| 20260507055503 | 44 | 50 | 0.0 | 1.0 | 0.00 | 0.32 | 0.00 | 98 | 1011.8 |
| 20260507055003 | 44 | 50 | 0.0 | 1.0 | 0.00 | 0.32 | 0.00 | 98 | 1011.6 |
| 20260507054503 | 44 | 50 | 0.0 | 1.0 | 0.00 | 0.32 | 0.00 | 98 | 1011.6 |
| 20260507054024 | 44 | 50 | 0.0 | 1.0 | 0.00 | 0.32 | 0.00 | 97 | 1011.5 |
| 20260507053503 | 44 | 0 | 0.0 | 0.0 | 0.00 | 0.32 | 0.00 | 98 | 1011.5 |
| 20260507053004 | 44 | 0 | 0.0 | 0.0 | 0.00 | 0.32 | 0.00 | 98 | 1011.7 |
| 20260507052505 | 44 | 0 | 0.0 | 0.0 | 0.00 | 0.32 | 0.00 | 98 | 1011.6 |